createdAt,value
2018-03-04T00:00:17.479Z,-2.03
2018-03-04T00:01:17.787Z,-2.06
2018-03-04T00:02:18.028Z,-2.11
2018-03-04T00:03:18.254Z,-2.15
2018-03-04T00:04:18.515Z,-2.12
2018-03-04T00:05:18.763Z,-2.11
2018-03-04T00:06:19.000Z,-2.09
2018-03-04T00:07:19.225Z,-2.16
2018-03-04T00:08:19.566Z,-2.08
2018-03-04T00:09:19.715Z,-2.09
2018-03-04T00:10:19.952Z,-2.09
2018-03-04T00:11:20.204Z,-2.08
2018-03-04T00:12:20.464Z,-2.16
2018-03-04T00:13:20.683Z,-2.12
2018-03-04T00:14:20.907Z,-2.12
2018-03-04T00:15:21.171Z,-2.18
2018-03-04T00:16:21.410Z,-2.15
2018-03-04T00:17:21.636Z,-2.15
2018-03-04T00:18:21.886Z,-2.15
2018-03-04T00:19:22.134Z,-2.21
2018-03-04T00:20:22.363Z,-2.26
2018-03-04T00:21:22.590Z,-2.26
2018-03-04T00:22:22.859Z,-2.22
2018-03-04T00:23:23.113Z,-2.12
2018-03-04T00:24:26.373Z,-2.15
2018-03-04T00:25:23.628Z,-2.15
2018-03-04T00:26:23.860Z,-2.34
2018-03-04T00:27:24.119Z,-2.22
2018-03-04T00:28:24.366Z,-2.19
2018-03-04T00:29:24.634Z,-2.26
2018-03-04T00:30:24.895Z,-2.27
2018-03-04T00:31:25.125Z,-2.16
2018-03-04T00:32:25.368Z,-2.19
2018-03-04T00:33:25.603Z,-2.29
2018-03-04T00:34:25.841Z,-2.26
2018-03-04T00:35:26.080Z,-2.34
2018-03-04T00:36:26.341Z,-2.27
2018-03-04T00:37:26.588Z,-2.24
2018-03-04T00:38:26.820Z,-2.21
2018-03-04T00:39:27.085Z,-2.33
2018-03-04T00:40:27.398Z,-2.34
2018-03-04T00:41:27.561Z,-2.43
2018-03-04T00:42:27.834Z,-2.40
2018-03-04T00:43:28.082Z,-2.46
2018-03-04T00:44:28.337Z,-2.33
2018-03-04T00:45:28.549Z,-2.30
2018-03-04T00:46:28.811Z,-2.30
2018-03-04T00:47:29.036Z,-2.24
2018-03-04T00:48:29.303Z,-2.15
2018-03-04T00:49:29.521Z,-2.22
2018-03-04T00:50:33.051Z,-2.26
2018-03-04T00:51:30.086Z,-2.27
2018-03-04T00:52:30.393Z,-2.19
2018-03-04T00:53:30.603Z,-2.16
2018-03-04T00:54:30.851Z,-2.26
2018-03-04T00:55:31.081Z,-2.21
2018-03-04T00:56:31.312Z,-2.19
2018-03-04T00:57:31.587Z,-2.22
2018-03-04T00:58:31.810Z,-2.26
2018-03-04T00:59:32.047Z,-2.46
2018-03-04T01:00:32.290Z,-2.33
2018-03-04T01:01:32.581Z,-2.43
2018-03-04T01:02:32.794Z,-2.34
2018-03-04T01:03:33.028Z,-2.33
2018-03-04T01:04:33.250Z,-2.24
2018-03-04T01:05:33.514Z,-2.30
2018-03-04T01:06:33.759Z,-2.22
2018-03-04T01:07:34.012Z,-2.24
2018-03-04T01:08:34.249Z,-2.19
2018-03-04T01:09:34.492Z,-2.19
2018-03-04T01:10:34.717Z,-2.15
2018-03-04T01:11:34.976Z,-2.03
2018-03-04T01:12:35.212Z,-2.12
2018-03-04T01:13:35.453Z,-2.09
2018-03-04T01:14:35.725Z,-2.12
2018-03-04T01:15:36.024Z,-2.08
2018-03-04T01:16:36.257Z,-2.18
2018-03-04T01:17:36.451Z,-2.08
2018-03-04T01:18:36.680Z,-2.12
2018-03-04T01:19:36.936Z,-2.22
2018-03-04T01:20:37.195Z,-2.15
2018-03-04T01:21:37.446Z,-2.15
2018-03-04T01:22:37.663Z,-2.12
2018-03-04T01:23:37.936Z,-2.11
2018-03-04T01:24:38.180Z,-2.12
2018-03-04T01:25:38.396Z,-2.03
2018-03-04T01:26:38.692Z,-2.00
2018-03-04T01:27:38.932Z,-2.06
2018-03-04T01:28:39.149Z,-2.14
2018-03-04T01:29:39.400Z,-2.11
2018-03-04T01:30:39.647Z,-2.19
2018-03-04T01:31:39.877Z,-2.08
2018-03-04T01:32:40.154Z,-2.08
2018-03-04T01:33:40.406Z,-2.09
2018-03-04T01:34:40.618Z,-2.03
2018-03-04T01:35:40.885Z,-1.97
2018-03-04T01:36:41.151Z,-1.91
2018-03-04T01:37:41.360Z,-1.82
2018-03-04T01:38:41.616Z,-1.85
2018-03-04T01:39:41.960Z,-1.88
2018-03-04T01:40:42.099Z,-1.82
2018-03-04T01:41:42.355Z,-1.88
2018-03-04T01:42:42.587Z,-1.85
2018-03-04T01:43:42.834Z,-1.88
2018-03-04T01:44:43.094Z,-1.82
2018-03-04T01:45:43.328Z,-1.94
2018-03-04T01:46:43.616Z,-1.97
2018-03-04T01:47:43.825Z,-1.96
2018-03-04T01:48:44.070Z,-1.86
2018-03-04T01:49:44.308Z,-1.82
2018-03-04T01:50:44.565Z,-1.88
2018-03-04T01:51:44.813Z,-1.80
2018-03-04T01:52:45.033Z,-1.82
2018-03-04T01:53:45.301Z,-1.91
2018-03-04T01:54:45.564Z,-1.85
2018-03-04T01:55:45.773Z,-1.88
2018-03-04T01:56:46.033Z,-1.83
2018-03-04T01:57:46.304Z,-1.80
2018-03-04T01:58:46.523Z,-1.82
2018-03-04T01:59:46.773Z,-1.73
2018-03-04T02:00:47.029Z,-1.79
2018-03-04T02:01:47.245Z,-1.80
2018-03-04T02:02:47.521Z,-1.64
2018-03-04T02:03:47.745Z,-1.62
2018-03-04T02:04:47.987Z,-1.65
2018-03-04T02:05:48.248Z,-1.62
2018-03-04T02:06:48.492Z,-1.59
2018-03-04T02:07:48.720Z,-1.65
2018-03-04T02:08:48.983Z,-1.72
2018-03-04T02:09:49.222Z,-1.64
2018-03-04T02:10:49.528Z,-1.57
2018-03-04T02:11:49.719Z,-1.54
2018-03-04T02:12:49.956Z,-1.55
2018-03-04T02:13:50.204Z,-1.54
2018-03-04T02:14:50.441Z,-1.58
2018-03-04T02:15:50.690Z,-1.55
2018-03-04T02:16:50.932Z,-1.59
2018-03-04T02:17:51.214Z,-1.64
2018-03-04T02:18:51.438Z,-1.61
2018-03-04T02:19:51.674Z,-1.65
2018-03-04T02:20:51.947Z,-1.72
2018-03-04T02:21:52.183Z,-1.65
2018-03-04T02:22:52.403Z,-1.75
2018-03-04T02:23:52.635Z,-1.73
2018-03-04T02:24:52.895Z,-1.61
2018-03-04T02:25:53.114Z,-1.61
2018-03-04T02:26:53.371Z,-1.67
2018-03-04T02:27:53.625Z,-1.59
2018-03-04T02:28:53.860Z,-1.70
2018-03-04T02:29:54.101Z,-1.65
2018-03-04T02:30:54.358Z,-1.55
2018-03-04T02:31:54.600Z,-1.59
2018-03-04T02:32:54.829Z,-1.59
2018-03-04T02:33:55.099Z,-1.52
2018-03-04T02:34:55.338Z,-1.51
2018-03-04T02:35:55.583Z,-1.54
2018-03-04T02:36:55.844Z,-1.54
2018-03-04T02:37:56.071Z,-1.59
2018-03-04T02:38:56.313Z,-1.65
2018-03-04T02:39:56.556Z,-1.75
2018-03-04T02:40:56.816Z,-1.64
2018-03-04T02:41:57.044Z,-1.61
2018-03-04T02:42:57.465Z,-1.61
2018-03-04T02:43:57.604Z,-1.67
2018-03-04T02:44:57.888Z,-1.57
2018-03-04T02:45:58.149Z,-1.61
2018-03-04T02:46:58.414Z,-1.65
2018-03-04T02:47:58.621Z,-1.58
2018-03-04T02:48:58.884Z,-1.72
2018-03-04T02:49:59.137Z,-1.64
2018-03-04T02:50:59.370Z,-1.65
2018-03-04T02:51:59.605Z,-1.73
2018-03-04T02:52:59.875Z,-1.69
2018-03-04T02:54:00.088Z,-1.61
2018-03-04T02:55:00.345Z,-1.69
2018-03-04T02:56:00.615Z,-1.49
2018-03-04T02:57:00.911Z,-1.47
2018-03-04T02:58:01.123Z,-1.57
2018-03-04T02:59:01.401Z,-1.55
2018-03-04T03:00:03.004Z,-1.52
2018-03-04T03:01:01.986Z,-1.49
2018-03-04T03:02:02.208Z,-1.49
2018-03-04T03:03:02.479Z,-1.54
2018-03-04T03:04:02.719Z,-1.52
2018-03-04T03:05:02.954Z,-1.55
2018-03-04T03:06:03.198Z,-1.51
2018-03-04T03:07:03.454Z,-1.49
2018-03-04T03:08:03.670Z,-1.55
2018-03-04T03:09:03.932Z,-1.47
2018-03-04T03:10:04.191Z,-1.57
2018-03-04T03:11:04.404Z,-1.52
2018-03-04T03:12:04.672Z,-1.43
2018-03-04T03:13:04.914Z,-1.37
2018-03-04T03:14:05.149Z,-1.43
2018-03-04T03:15:05.421Z,-1.33
2018-03-04T03:16:05.628Z,-1.34
2018-03-04T03:17:05.876Z,-1.43
2018-03-04T03:18:06.105Z,-1.33
2018-03-04T03:19:06.369Z,-1.25
2018-03-04T03:20:06.609Z,-1.33
2018-03-04T03:21:06.835Z,-1.39
2018-03-04T03:22:07.109Z,-1.33
2018-03-04T03:23:07.348Z,-1.29
2018-03-04T03:24:07.584Z,-1.34
2018-03-04T03:25:07.847Z,-1.37
2018-03-04T03:26:08.075Z,-1.29
2018-03-04T03:27:08.300Z,-1.39
2018-03-04T03:28:08.532Z,-1.36
2018-03-04T03:29:08.788Z,-1.31
2018-03-04T03:30:09.109Z,-1.25
2018-03-04T03:31:09.269Z,-1.26
2018-03-04T03:32:09.524Z,-1.34
2018-03-04T03:33:09.757Z,-1.33
2018-03-04T03:34:09.993Z,-1.26
2018-03-04T03:35:10.283Z,-1.29
2018-03-04T03:36:10.491Z,-1.33
2018-03-04T03:37:10.766Z,-1.31
2018-03-04T03:38:11.028Z,-1.31
2018-03-04T03:39:11.239Z,-1.34
2018-03-04T03:40:11.464Z,-1.33
2018-03-04T03:41:11.756Z,-1.41
2018-03-04T03:42:11.970Z,-1.41
2018-03-04T03:43:12.189Z,-1.36
2018-03-04T03:44:12.472Z,-1.41
2018-03-04T03:45:12.679Z,-1.33
2018-03-04T03:46:12.912Z,-1.39
2018-03-04T03:47:13.165Z,-1.36
2018-03-04T03:48:13.424Z,-1.41
2018-03-04T03:49:13.676Z,-1.31
2018-03-04T03:50:13.928Z,-1.36
2018-03-04T03:51:14.165Z,-1.33
2018-03-04T03:52:14.402Z,-1.37
2018-03-04T03:53:14.625Z,-1.29
2018-03-04T03:54:14.858Z,-1.23
2018-03-04T03:55:15.174Z,-1.29
2018-03-04T03:56:15.348Z,-1.29
2018-03-04T03:57:15.583Z,-1.33
2018-03-04T03:58:15.854Z,-1.36
2018-03-04T03:59:16.082Z,-1.23
2018-03-04T04:00:16.311Z,-1.29
2018-03-04T04:01:16.565Z,-1.26
2018-03-04T04:02:16.816Z,-1.26
2018-03-04T04:03:17.062Z,-1.19
2018-03-04T04:04:17.413Z,-1.26
2018-03-04T04:05:17.573Z,-1.28
2018-03-04T04:06:17.795Z,-1.25
2018-03-04T04:07:18.026Z,-1.28
2018-03-04T04:08:18.485Z,-1.23
2018-03-04T04:09:18.687Z,-1.28
2018-03-04T04:10:18.791Z,-1.36
2018-03-04T04:11:19.017Z,-1.28
2018-03-04T04:12:19.261Z,-1.25
2018-03-04T04:13:19.537Z,-1.16
2018-03-04T04:14:19.772Z,-1.28
2018-03-04T04:15:19.995Z,-1.23
2018-03-04T04:16:20.240Z,-1.19
2018-03-04T04:17:20.492Z,-1.16
2018-03-04T04:18:20.731Z,-1.18
2018-03-04T04:19:20.958Z,-1.15
2018-03-04T04:20:21.227Z,-1.21
2018-03-04T04:21:21.499Z,-1.05
2018-03-04T04:22:21.702Z,-1.19
2018-03-04T04:23:21.954Z,-1.15
2018-03-04T04:24:22.231Z,-1.15
2018-03-04T04:25:22.451Z,-1.03
2018-03-04T04:26:22.701Z,-1.11
2018-03-04T04:27:22.961Z,-1.05
2018-03-04T04:28:23.205Z,-1.10
2018-03-04T04:29:23.437Z,-1.18
2018-03-04T04:30:23.689Z,-1.10
2018-03-04T04:31:23.913Z,-1.13
2018-03-04T04:32:24.164Z,-1.11
2018-03-04T04:33:24.410Z,-1.01
2018-03-04T04:34:24.655Z,-1.08
2018-03-04T04:35:24.923Z,-1.15
2018-03-04T04:36:25.188Z,-1.01
2018-03-04T04:37:25.389Z,-1.01
2018-03-04T04:38:25.642Z,-1.05
2018-03-04T04:39:25.899Z,-0.97
2018-03-04T04:40:26.124Z,-0.92
2018-03-04T04:41:26.385Z,-0.95
2018-03-04T04:42:26.611Z,-0.89
2018-03-04T04:43:26.853Z,-0.92
2018-03-04T04:44:27.150Z,-0.98
2018-03-04T04:45:27.349Z,-0.94
2018-03-04T04:46:27.609Z,-0.97
2018-03-04T04:47:27.847Z,-1.03
2018-03-04T04:48:28.167Z,-0.94
2018-03-04T04:49:28.317Z,-1.00
2018-03-04T04:50:28.550Z,-0.98
2018-03-04T04:51:28.803Z,-0.98
2018-03-04T04:52:29.046Z,-1.00
2018-03-04T04:53:29.286Z,-1.01
2018-03-04T04:54:29.580Z,-0.97
2018-03-04T04:55:29.778Z,-0.98
2018-03-04T04:56:30.021Z,-1.05
2018-03-04T04:57:30.241Z,-0.92
2018-03-04T04:58:30.517Z,-0.95
2018-03-04T04:59:30.753Z,-0.86
2018-03-04T05:00:31.005Z,-0.90
2018-03-04T05:01:31.244Z,-0.94
2018-03-04T05:02:31.465Z,-0.97
2018-03-04T05:03:31.756Z,-0.95
2018-03-04T05:04:31.974Z,-0.95
2018-03-04T05:05:32.215Z,-0.97
2018-03-04T05:06:32.449Z,-0.86
2018-03-04T05:07:32.717Z,-0.95
2018-03-04T05:08:32.937Z,-0.97
2018-03-04T05:09:33.181Z,-0.98
2018-03-04T05:10:33.463Z,-0.94
2018-03-04T05:11:33.694Z,-0.97
2018-03-04T05:12:33.923Z,-0.97
2018-03-04T05:13:34.288Z,-0.98
2018-03-04T05:14:34.393Z,-0.90
2018-03-04T05:15:34.625Z,-0.90
2018-03-04T05:16:34.867Z,-0.97
2018-03-04T05:17:35.108Z,-1.00
2018-03-04T05:18:35.355Z,-0.98
2018-03-04T05:19:35.594Z,-0.89
2018-03-04T05:20:35.811Z,-0.86
2018-03-04T05:21:36.071Z,-0.89
2018-03-04T05:22:36.305Z,-0.89
2018-03-04T05:23:36.598Z,-0.86
2018-03-04T05:24:36.811Z,-0.84
2018-03-04T05:25:37.078Z,-0.85
2018-03-04T05:26:37.346Z,-0.79
2018-03-04T05:27:37.591Z,-0.86
2018-03-04T05:28:37.837Z,-0.84
2018-03-04T05:29:38.048Z,-0.85
2018-03-04T05:30:38.308Z,-0.75
2018-03-04T05:31:38.551Z,-0.78
2018-03-04T05:32:38.858Z,-0.73
2018-03-04T05:33:39.023Z,-0.76
2018-03-04T05:34:39.255Z,-0.68
2018-03-04T05:35:39.517Z,-0.66
2018-03-04T05:36:39.871Z,-0.75
2018-03-04T05:37:40.060Z,-0.76
2018-03-04T05:38:40.272Z,-0.78
2018-03-04T05:39:40.499Z,-0.79
2018-03-04T05:40:40.747Z,-0.70
2018-03-04T05:41:41.031Z,-0.71
2018-03-04T05:42:41.265Z,-0.71
2018-03-04T05:43:41.495Z,-0.79
2018-03-04T05:44:41.728Z,-0.75
2018-03-04T05:45:41.972Z,-0.71
2018-03-04T05:46:42.230Z,-0.71
2018-03-04T05:47:42.459Z,-0.73
2018-03-04T05:48:42.739Z,-0.90
2018-03-04T05:49:42.953Z,-0.98
2018-03-04T05:50:43.231Z,-0.95
2018-03-04T05:51:43.450Z,-0.89
2018-03-04T05:52:43.763Z,-0.86
2018-03-04T05:53:43.946Z,-0.75
2018-03-04T05:54:44.213Z,-0.79
2018-03-04T05:55:44.426Z,-0.71
2018-03-04T05:56:44.664Z,-0.78
2018-03-04T05:57:44.915Z,-0.70
2018-03-04T05:58:45.170Z,-0.75
2018-03-04T05:59:45.417Z,-0.67
2018-03-04T06:00:45.660Z,-0.70
2018-03-04T06:01:45.927Z,-0.63
2018-03-04T06:02:46.174Z,-0.58
2018-03-04T06:03:46.393Z,-0.58
2018-03-04T06:04:46.678Z,-0.60
2018-03-04T06:05:46.884Z,-0.61
2018-03-04T06:06:47.208Z,-0.57
2018-03-04T06:07:47.411Z,-0.60
2018-03-04T06:08:47.605Z,-0.55
2018-03-04T06:09:47.874Z,-0.55
2018-03-04T06:10:48.129Z,-0.55
2018-03-04T06:11:48.368Z,-0.58
2018-03-04T06:12:48.616Z,-0.50
2018-03-04T06:13:48.928Z,-0.53
2018-03-04T06:14:49.229Z,-0.58
2018-03-04T06:15:49.486Z,-0.50
2018-03-04T06:16:49.669Z,-0.60
2018-03-04T06:17:49.901Z,-0.47
2018-03-04T06:18:50.136Z,-0.53
2018-03-04T06:19:50.421Z,-0.47
2018-03-04T06:20:50.655Z,-0.55
2018-03-04T06:21:50.958Z,-0.50
2018-03-04T06:22:51.196Z,-0.57
2018-03-04T06:23:51.417Z,-0.40
2018-03-04T06:24:51.653Z,-0.53
2018-03-04T06:25:51.913Z,-0.52
2018-03-04T06:26:52.164Z,-0.40
2018-03-04T06:27:52.430Z,-0.45
2018-03-04T06:28:52.648Z,-0.35
2018-03-04T06:29:52.893Z,-0.32
2018-03-04T06:30:53.153Z,-0.43
2018-03-04T06:31:53.375Z,-0.35
2018-03-04T06:32:53.626Z,-0.31
2018-03-04T06:33:53.877Z,-0.35
2018-03-04T06:34:54.119Z,-0.35
2018-03-04T06:35:54.359Z,-0.31
2018-03-04T06:36:54.608Z,-0.35
2018-03-04T06:37:54.841Z,-0.35
2018-03-04T06:38:55.108Z,-0.27
2018-03-04T06:39:55.362Z,-0.35
2018-03-04T06:40:55.590Z,-0.27
2018-03-04T06:41:55.816Z,-0.38
2018-03-04T06:42:56.077Z,-0.42
2018-03-04T06:43:56.338Z,-0.32
2018-03-04T06:44:57.043Z,-0.29
2018-03-04T06:45:56.782Z,-0.39
2018-03-04T06:46:57.034Z,-0.29
2018-03-04T06:47:57.617Z,-0.43
2018-03-04T06:48:57.534Z,-0.32
2018-03-04T06:49:57.781Z,-0.22
2018-03-04T06:50:58.158Z,-0.29
2018-03-04T06:51:58.273Z,-0.29
2018-03-04T06:52:58.531Z,-0.25
2018-03-04T06:53:58.762Z,-0.25
2018-03-04T06:54:58.995Z,-0.22
2018-03-04T06:55:59.219Z,-0.24
2018-03-04T06:56:59.470Z,-0.27
2018-03-04T06:57:59.773Z,-0.24
2018-03-04T06:58:59.955Z,-0.27
2018-03-04T07:00:00.417Z,-0.29
2018-03-04T07:01:00.653Z,-0.16
2018-03-04T07:02:00.860Z,-0.27
2018-03-04T07:03:01.821Z,-0.17
2018-03-04T07:04:01.498Z,-0.27
2018-03-04T07:05:01.764Z,-0.28
2018-03-04T07:06:01.946Z,-0.20
2018-03-04T07:07:02.200Z,-0.20
2018-03-04T07:08:02.421Z,-0.16
2018-03-04T07:09:02.691Z,-0.14
2018-03-04T07:10:02.899Z,-0.11
2018-03-04T07:11:03.155Z,-0.09
2018-03-04T07:12:03.413Z,0.00
2018-03-04T07:13:03.632Z,-0.06
2018-03-04T07:14:03.841Z,-0.04
2018-03-04T07:15:04.158Z,-0.06
2018-03-04T07:16:04.338Z,-0.01
2018-03-04T07:17:04.563Z,-0.09
2018-03-04T07:18:04.852Z,0.07
2018-03-04T07:19:05.044Z,0.05
2018-03-04T07:20:05.318Z,0.09
2018-03-04T07:21:05.534Z,0.07
2018-03-04T07:22:05.782Z,0.05
2018-03-04T07:23:06.034Z,0.15
2018-03-04T07:24:06.261Z,0.12
2018-03-04T07:25:06.522Z,0.20
2018-03-04T07:26:06.767Z,0.22
2018-03-04T07:27:06.992Z,0.17
2018-03-04T07:28:07.239Z,0.18
2018-03-04T07:29:07.518Z,0.15
2018-03-04T07:30:07.748Z,0.33
2018-03-04T07:31:07.985Z,0.30
2018-03-04T07:32:08.220Z,0.29
2018-03-04T07:33:08.588Z,0.36
2018-03-04T07:34:08.797Z,0.33
2018-03-04T07:35:08.984Z,0.29
2018-03-04T07:36:09.197Z,0.36
2018-03-04T07:37:09.461Z,0.36
2018-03-04T07:38:09.686Z,0.35
2018-03-04T07:39:09.942Z,0.37
2018-03-04T07:40:10.177Z,0.41
2018-03-04T07:41:10.439Z,0.51
2018-03-04T07:42:10.643Z,0.43
2018-03-04T07:43:10.892Z,0.51
2018-03-04T07:44:11.163Z,0.51
2018-03-04T07:45:11.401Z,0.48
2018-03-04T07:46:11.651Z,0.60
2018-03-04T07:47:14.698Z,0.63
2018-03-04T07:48:12.152Z,0.67
2018-03-04T07:49:12.398Z,0.70
2018-03-04T07:50:12.640Z,0.73
2018-03-04T07:51:12.883Z,0.74
2018-03-04T07:52:13.150Z,0.82
2018-03-04T07:53:13.374Z,0.81
2018-03-04T07:54:13.725Z,0.74
2018-03-04T07:55:13.887Z,0.81
2018-03-04T07:56:14.107Z,0.84
2018-03-04T07:57:14.359Z,0.78
2018-03-04T07:58:14.584Z,0.81
2018-03-04T07:59:14.848Z,0.84
2018-03-04T08:00:15.107Z,0.74
2018-03-04T08:01:15.328Z,0.90
2018-03-04T08:02:15.613Z,0.73
2018-03-04T08:03:15.818Z,0.78
2018-03-04T08:04:16.097Z,0.88
2018-03-04T08:05:16.358Z,0.78
2018-03-04T08:06:16.587Z,0.85
2018-03-04T08:07:16.844Z,0.82
2018-03-04T08:08:17.081Z,0.82
2018-03-04T08:09:17.327Z,0.78
2018-03-04T08:10:17.574Z,0.69
2018-03-04T08:11:17.818Z,0.76
2018-03-04T08:12:18.055Z,0.76
2018-03-04T08:13:18.287Z,0.85
2018-03-04T08:14:18.539Z,0.88
2018-03-04T08:15:18.785Z,0.87
2018-03-04T08:16:19.044Z,0.81
2018-03-04T08:17:19.323Z,0.98
2018-03-04T08:18:19.538Z,0.91
2018-03-04T08:19:19.754Z,1.02
2018-03-04T08:20:20.032Z,1.05
2018-03-04T08:21:20.269Z,1.16
2018-03-04T08:22:20.523Z,1.20
2018-03-04T08:23:20.754Z,1.20
2018-03-04T08:24:21.004Z,1.20
2018-03-04T08:25:21.236Z,1.20
2018-03-04T08:26:21.503Z,1.27
2018-03-04T08:27:21.744Z,1.26
2018-03-04T08:28:21.972Z,1.27
2018-03-04T08:29:22.232Z,1.26
2018-03-04T08:30:22.500Z,1.24
2018-03-04T08:31:22.697Z,1.31
2018-03-04T08:32:22.971Z,1.44
2018-03-04T08:33:23.202Z,1.56
2018-03-04T08:34:23.474Z,1.62
2018-03-04T08:35:23.716Z,1.53
2018-03-04T08:36:23.937Z,1.64
2018-03-04T08:37:24.186Z,1.56
2018-03-04T08:38:24.436Z,1.59
2018-03-04T08:39:24.695Z,1.63
2018-03-04T08:40:24.953Z,1.71
2018-03-04T08:41:25.174Z,1.71
2018-03-04T08:42:25.398Z,1.66
2018-03-04T08:43:25.649Z,1.71
2018-03-04T08:44:25.914Z,1.80
2018-03-04T08:45:26.171Z,1.73
2018-03-04T08:46:26.387Z,1.74
2018-03-04T08:47:26.671Z,1.66
2018-03-04T08:48:26.916Z,1.71
2018-03-04T08:49:27.156Z,1.71
2018-03-04T08:50:27.394Z,1.59
2018-03-04T08:51:27.656Z,1.59
2018-03-04T08:52:27.912Z,1.62
2018-03-04T08:53:28.177Z,1.63
2018-03-04T08:54:28.381Z,1.69
2018-03-04T08:55:28.638Z,1.77
2018-03-04T08:56:28.900Z,1.74
2018-03-04T08:57:29.127Z,1.77
2018-03-04T08:58:29.391Z,1.77
2018-03-04T08:59:29.665Z,1.77
2018-03-04T09:00:29.866Z,1.87
2018-03-04T09:01:30.148Z,1.99
2018-03-04T09:02:30.373Z,1.89
2018-03-04T09:03:30.651Z,1.81
2018-03-04T09:04:30.860Z,1.91
2018-03-04T09:05:31.114Z,1.99
2018-03-04T09:06:31.341Z,2.00
2018-03-04T09:07:31.594Z,2.01
2018-03-04T09:08:31.873Z,1.99
2018-03-04T09:09:32.103Z,2.07
2018-03-04T09:10:32.341Z,2.06
2018-03-04T09:11:32.571Z,2.04
2018-03-04T09:12:32.917Z,2.25
2018-03-04T09:13:33.084Z,2.40
2018-03-04T09:14:33.324Z,2.45
2018-03-04T09:15:33.549Z,2.50
2018-03-04T09:16:33.814Z,2.68
2018-03-04T09:17:34.063Z,2.76
2018-03-04T09:18:34.311Z,2.76
2018-03-04T09:19:34.543Z,2.94
2018-03-04T09:20:34.807Z,2.91
2018-03-04T09:21:35.040Z,3.08
2018-03-04T09:22:35.295Z,3.14
2018-03-04T09:23:35.547Z,3.22
2018-03-04T09:24:35.766Z,3.25
2018-03-04T09:25:36.056Z,3.32
2018-03-04T09:26:36.294Z,3.37
2018-03-04T09:27:36.556Z,3.46
2018-03-04T09:28:36.779Z,3.49
2018-03-04T09:29:37.012Z,3.64
2018-03-04T09:30:37.293Z,3.59
2018-03-04T09:31:37.539Z,3.64
2018-03-04T09:32:37.769Z,3.78
2018-03-04T09:33:38.026Z,3.74
2018-03-04T09:34:38.275Z,3.82
2018-03-04T09:35:38.514Z,3.88
2018-03-04T09:36:38.786Z,3.82
2018-03-04T09:37:39.030Z,3.70
2018-03-04T09:38:39.243Z,3.80
2018-03-04T09:39:39.500Z,3.85
2018-03-04T09:40:39.751Z,3.88
2018-03-04T09:41:40.017Z,3.84
2018-03-04T09:42:40.236Z,3.81
2018-03-04T09:43:40.504Z,3.82
2018-03-04T09:44:40.738Z,3.91
2018-03-04T09:45:43.700Z,3.88
2018-03-04T09:46:41.424Z,3.87
2018-03-04T09:47:41.669Z,4.09
2018-03-04T09:48:41.928Z,4.10
2018-03-04T09:49:42.223Z,4.16
2018-03-04T09:50:42.404Z,4.17
2018-03-04T09:51:42.656Z,4.08
2018-03-04T09:52:42.959Z,4.02
2018-03-04T09:53:43.175Z,4.02
2018-03-04T09:54:43.407Z,4.13
2018-03-04T09:55:43.637Z,4.20
2018-03-04T09:56:43.885Z,4.30
2018-03-04T09:57:44.163Z,4.42
2018-03-04T09:58:44.432Z,4.61
2018-03-04T09:59:44.616Z,4.75
2018-03-04T10:00:44.893Z,4.79
2018-03-04T10:01:45.130Z,4.88
2018-03-04T10:02:45.348Z,5.12
2018-03-04T10:03:45.610Z,4.85
2018-03-04T10:04:45.867Z,4.89
2018-03-04T10:05:46.137Z,5.01
2018-03-04T10:06:46.364Z,5.04
2018-03-04T10:07:46.588Z,5.09
2018-03-04T10:08:46.875Z,5.22
2018-03-04T10:09:47.115Z,5.30
2018-03-04T10:10:47.347Z,5.19
2018-03-04T10:11:47.587Z,5.18
2018-03-04T10:12:47.885Z,5.30
2018-03-04T10:13:48.058Z,5.41
2018-03-04T10:14:48.349Z,5.59
2018-03-04T10:15:48.562Z,5.59
2018-03-04T10:16:48.832Z,5.59
2018-03-04T10:17:52.150Z,5.73
2018-03-04T10:18:49.396Z,5.69
2018-03-04T10:19:49.672Z,5.41
2018-03-04T10:20:49.914Z,5.40
2018-03-04T10:21:50.134Z,5.48
2018-03-04T10:22:50.409Z,5.48
2018-03-04T10:23:50.614Z,5.67
2018-03-04T10:24:50.901Z,5.77
2018-03-04T10:25:51.145Z,5.79
2018-03-04T10:26:51.361Z,5.87
2018-03-04T10:27:51.608Z,6.03
2018-03-04T10:28:51.851Z,6.05
2018-03-04T10:29:52.098Z,6.28
2018-03-04T10:30:52.674Z,6.21
2018-03-04T10:31:52.602Z,6.09
2018-03-04T10:32:52.856Z,5.98
2018-03-04T10:33:53.118Z,5.82
2018-03-04T10:34:53.325Z,5.70
2018-03-04T10:35:53.570Z,5.62
2018-03-04T10:36:53.824Z,5.58
2018-03-04T10:37:54.096Z,5.58
2018-03-04T10:38:54.412Z,5.52
2018-03-04T10:39:54.635Z,5.72
2018-03-04T10:40:54.854Z,5.67
2018-03-04T10:41:55.084Z,5.76
2018-03-04T10:42:55.322Z,5.77
2018-03-04T10:43:55.574Z,5.77
2018-03-04T10:44:55.846Z,5.82
2018-03-04T10:45:56.099Z,5.77
2018-03-04T10:46:56.336Z,5.76
2018-03-04T10:47:56.586Z,5.77
2018-03-04T10:48:56.813Z,5.85
2018-03-04T10:49:57.045Z,5.88
2018-03-04T10:50:57.343Z,5.94
2018-03-04T10:51:57.548Z,5.97
2018-03-04T10:52:57.817Z,6.08
2018-03-04T10:53:58.084Z,6.05
2018-03-04T10:54:58.288Z,6.12
2018-03-04T10:55:58.551Z,6.09
2018-03-04T10:56:58.807Z,5.98
2018-03-04T10:57:59.022Z,5.91
2018-03-04T10:58:59.260Z,5.94
2018-03-04T10:59:59.529Z,5.94
2018-03-04T11:00:59.766Z,5.98
2018-03-04T11:02:00.022Z,6.13
2018-03-04T11:03:00.267Z,5.97
2018-03-04T11:04:00.518Z,5.95
2018-03-04T11:05:00.750Z,6.05
2018-03-04T11:06:01.018Z,5.98
2018-03-04T11:07:01.249Z,6.05
2018-03-04T11:08:01.485Z,6.05
2018-03-04T11:09:02.005Z,6.08
2018-03-04T11:10:02.130Z,5.98
2018-03-04T11:11:02.378Z,5.95
2018-03-04T11:12:02.642Z,6.12
2018-03-04T11:13:02.824Z,6.03
2018-03-04T11:14:03.083Z,6.06
2018-03-04T11:15:03.349Z,5.98
2018-03-04T11:16:03.591Z,5.87
2018-03-04T11:17:03.821Z,5.95
2018-03-04T11:18:04.085Z,5.94
2018-03-04T11:19:04.300Z,5.85
2018-03-04T11:20:04.579Z,5.93
2018-03-04T11:21:04.820Z,5.90
2018-03-04T11:22:05.044Z,6.08
2018-03-04T11:23:05.306Z,6.11
2018-03-04T11:24:05.589Z,6.27
2018-03-04T11:25:05.785Z,6.30
2018-03-04T11:26:06.044Z,6.12
2018-03-04T11:27:06.288Z,6.05
2018-03-04T11:28:06.523Z,6.00
2018-03-04T11:29:06.764Z,6.28
2018-03-04T11:30:07.031Z,6.37
2018-03-04T11:31:07.247Z,6.24
2018-03-04T11:32:07.572Z,6.43
2018-03-04T11:33:07.762Z,6.40
2018-03-04T11:34:07.997Z,6.45
2018-03-04T11:35:08.263Z,6.52
2018-03-04T11:36:08.527Z,6.64
2018-03-04T11:37:08.728Z,6.53
2018-03-04T11:38:09.011Z,6.73
2018-03-04T11:39:09.257Z,6.81
2018-03-04T11:40:09.492Z,6.81
2018-03-04T11:41:09.719Z,7.00
2018-03-04T11:42:09.983Z,7.06
2018-03-04T11:43:10.213Z,6.93
2018-03-04T11:44:10.510Z,6.93
2018-03-04T11:45:10.709Z,6.97
2018-03-04T11:46:10.951Z,7.00
2018-03-04T11:47:11.236Z,6.88
2018-03-04T11:48:11.470Z,6.97
2018-03-04T11:49:11.686Z,6.97
2018-03-04T11:50:11.941Z,7.03
2018-03-04T11:51:12.202Z,7.08
2018-03-04T11:52:12.426Z,7.16
2018-03-04T11:53:12.679Z,7.39
2018-03-04T11:54:12.934Z,7.36
2018-03-04T11:55:13.185Z,7.40
2018-03-04T11:56:13.450Z,7.43
2018-03-04T11:57:13.668Z,7.46
2018-03-04T11:58:13.919Z,7.29
2018-03-04T11:59:14.164Z,7.33
2018-03-04T12:00:14.421Z,7.55
2018-03-04T12:01:14.669Z,7.50
2018-03-04T12:02:14.929Z,7.64
2018-03-04T12:03:15.187Z,7.78
2018-03-04T12:04:15.402Z,7.86
2018-03-04T12:05:15.676Z,7.69
2018-03-04T12:06:15.920Z,7.78
2018-03-04T12:07:16.176Z,7.81
2018-03-04T12:08:16.425Z,7.86
2018-03-04T12:09:16.660Z,7.92
2018-03-04T12:10:16.914Z,7.86
2018-03-04T12:11:17.180Z,7.94
2018-03-04T12:12:17.403Z,8.02
2018-03-04T12:13:17.658Z,8.14
2018-03-04T12:14:17.885Z,8.17
2018-03-04T12:15:18.168Z,7.99
2018-03-04T12:16:18.410Z,7.98
2018-03-04T12:17:18.650Z,7.99
2018-03-04T12:18:18.915Z,8.02
2018-03-04T12:19:19.189Z,7.98
2018-03-04T12:20:19.372Z,7.98
2018-03-04T12:21:19.656Z,7.99
2018-03-04T12:22:19.900Z,8.01
2018-03-04T12:23:20.149Z,7.98
2018-03-04T12:24:20.392Z,7.98
2018-03-04T12:25:20.647Z,7.94
2018-03-04T12:26:20.895Z,7.91
2018-03-04T12:27:21.141Z,7.69
2018-03-04T12:28:21.375Z,7.58
2018-03-04T12:29:21.622Z,7.49
2018-03-04T12:30:21.947Z,7.40
2018-03-04T12:31:22.182Z,7.25
2018-03-04T12:32:22.424Z,7.40
2018-03-04T12:33:22.673Z,7.42
2018-03-04T12:34:22.926Z,7.47
2018-03-04T12:35:23.164Z,7.52
2018-03-04T12:36:23.420Z,7.61
2018-03-04T12:37:23.680Z,7.47
2018-03-04T12:38:23.920Z,7.54
2018-03-04T12:39:24.163Z,7.52
2018-03-04T12:40:24.467Z,7.58
2018-03-04T12:41:24.672Z,7.66
2018-03-04T12:42:24.934Z,7.74
2018-03-04T12:43:25.180Z,7.73
2018-03-04T12:44:25.436Z,7.64
2018-03-04T12:45:25.678Z,7.37
2018-03-04T12:46:25.944Z,7.28
2018-03-04T12:47:26.232Z,7.07
2018-03-04T12:48:26.418Z,7.18
2018-03-04T12:49:26.702Z,7.15
2018-03-04T12:50:26.970Z,7.24
2018-03-04T12:51:27.223Z,7.40
2018-03-04T12:52:27.480Z,7.28
2018-03-04T12:53:27.720Z,7.29
2018-03-04T12:54:27.980Z,7.42
2018-03-04T12:55:28.287Z,7.52
2018-03-04T12:56:28.447Z,7.39
2018-03-04T12:57:28.758Z,7.22
2018-03-04T12:58:28.951Z,7.26
2018-03-04T12:59:29.230Z,7.18
2018-03-04T13:00:29.501Z,6.92
2018-03-04T13:01:29.695Z,7.03
2018-03-04T13:02:29.973Z,6.83
2018-03-04T13:03:30.205Z,6.85
2018-03-04T13:04:30.463Z,6.91
2018-03-04T13:05:30.704Z,6.97
2018-03-04T13:06:30.940Z,6.97